Strathmore, Canada
Current Conditions -  °F | °C
As of 1:00 PM on Thursday 30 Oct 2014 (Local Time) from CYYC Reporting Station
Moderate Fog Moderate Fog  
Wind Chill: 20°   Ceiling: 200
Heat Index: 30°   Visibility: 0.5mi
Dew Point: 28°   Wind: 13mph
Humidity: 93%   Direction: 170°S
Pressure: 30.14"   Gusts: NA
Location:  51.04°N, 113.38°W
Report Text: CYYC 301900Z 17011KT 1/2SM R17R/2800FT/N R17L/3000V4000FT/D R29/2800V4500FT/U FZFG OVC002 M01/M02 A3014 RMK FG7ST1 SLP257
Loading
Personal Weather Stations






























Interactive Weather Map
Tropical Storm Tracking
New forecast layout! Learn more

10-Day Weather Forecast

Advertisements
Track Severe Weather on mobile